Time;durP1;ratioP1;P1;durP2;ratioP2;P2;SDS_P1;SDS_P2;PMS_P1;PMS_P2;Temp;Humidity;BMP_temperature;BMP_pressure;BME280_temperature;BME280_humidity;BME280_pressure;Samples;Min_cycle;Max_cycle;Signal;HPM_P1;HPM_P2
2021/08/11 00:01:41;;;;;;;1.73;1.20;;;31.00;93.80;;;;;;5018450;28;20254;-92
2021/08/11 00:04:13;;;;;;;2.47;1.40;;;31.30;93.30;;;;;;5018945;28;20190;-92
2021/08/11 00:06:47;;;;;;;1.83;1.00;;;31.20;93.30;;;;;;5019287;28;20194;-92
2021/08/11 00:25:33;;;;;;;1.70;1.20;;;31.50;93.00;;;;;;5037155;28;20224;-91
2021/08/11 00:28:12;;;;;;;2.55;1.20;;;31.40;94.00;;;;;;5038505;28;20197;-91
2021/08/11 00:33:44;;;;;;;1.48;1.25;;;31.30;91.70;;;;;;5114571;22;20239;-91
2021/08/11 00:36:24;;;;;;;2.40;1.08;;;31.20;92.20;;;;;;4979686;28;20203;-92
2021/08/11 00:38:56;;;;;;;2.72;1.42;;;31.10;91.30;;;;;;4982785;28;20222;-92
2021/08/11 00:41:30;;;;;;;1.50;1.40;;;31.00;91.60;;;;;;4983146;28;20207;-92
2021/08/11 00:44:02;;;;;;;1.90;1.13;;;31.00;91.80;;;;;;4966505;28;20222;-92
2021/08/11 00:46:35;;;;;;;1.95;1.38;;;31.00;93.50;;;;;;4982199;28;20221;-91
2021/08/11 00:49:07;;;;;;;1.48;1.10;;;31.00;92.00;;;;;;4981041;28;20273;-93
2021/08/11 00:51:38;;;;;;;3.38;1.42;;;30.90;92.00;;;;;;4966276;28;20249;-91
2021/08/11 00:54:10;;;;;;;2.30;1.10;;;30.90;93.20;;;;;;4984192;28;20230;-91
2021/08/11 00:56:47;;;;;;;1.53;1.03;;;30.90;94.70;;;;;;4982970;28;20237;-92
2021/08/11 00:59:21;;;;;;;1.77;1.40;;;30.50;95.10;;;;;;4980137;28;20675;-91
2021/08/11 01:01:54;;;;;;;1.15;1.00;;;30.50;94.50;;;;;;4976038;28;20203;-92
2021/08/11 01:04:27;;;;;;;1.73;1.38;;;30.70;93.30;;;;;;4961881;28;20223;-91
2021/08/11 01:06:59;;;;;;;1.40;1.30;;;30.90;92.10;;;;;;4962641;28;20690;-91
2021/08/11 01:09:34;;;;;;;1.97;1.50;;;31.00;92.40;;;;;;4963548;29;20192;-92
2021/08/11 01:12:10;;;;;;;2.67;1.20;;;31.30;91.70;;;;;;4964391;29;20215;-92
2021/08/11 01:14:43;;;;;;;1.30;1.20;;;31.60;91.30;;;;;;4961390;29;20234;-92
2021/08/11 01:17:16;;;;;;;2.33;1.57;;;31.70;92.40;;;;;;4965421;29;20214;-92
2021/08/11 01:19:48;;;;;;;1.42;1.33;;;32.00;91.90;;;;;;4964337;28;20219;-91
2021/08/11 01:22:27;;;;;;;4.88;1.25;;;32.30;90.80;;;;;;4982176;28;20207;-92
2021/08/11 01:25:13;;;;;;;1.15;1.05;;;32.40;91.10;;;;;;4982856;28;20211;-93
2021/08/11 01:28:23;;;;;;;1.50;1.40;;;32.70;90.80;;;;;;4982933;28;20214;-90
2021/08/11 01:31:05;;;;;;;1.38;1.27;;;32.70;90.40;;;;;;4984168;28;20214;-91
2021/08/11 01:33:50;;;;;;;2.77;1.33;;;32.90;90.00;;;;;;4983548;28;20268;-91
2021/08/11 01:36:34;;;;;;;2.40;1.55;;;33.00;90.50;;;;;;4984752;28;20238;-91
2021/08/11 01:39:09;;;;;;;2.50;1.70;;;33.00;89.70;;;;;;4985857;28;20226;-91
2021/08/11 01:41:48;;;;;;;1.75;1.42;;;33.10;90.20;;;;;;4986294;28;20299;-91
2021/08/11 01:44:25;;;;;;;2.13;1.70;;;33.40;90.00;;;;;;4984718;28;20214;-91
2021/08/11 01:46:58;;;;;;;1.83;1.20;;;33.20;90.00;;;;;;4967096;29;20344;-91
2021/08/11 01:49:36;;;;;;;2.35;1.60;;;33.30;90.10;;;;;;4965356;29;20215;-91
2021/08/11 01:52:10;;;;;;;1.40;1.30;;;33.20;89.20;;;;;;4966056;29;20210;-92
2021/08/11 01:54:43;;;;;;;3.05;1.42;;;33.20;87.80;;;;;;4964917;28;20231;-91
2021/08/11 01:57:16;;;;;;;1.95;1.40;;;32.80;88.80;;;;;;4964441;29;20211;-91
2021/08/11 01:59:48;;;;;;;1.58;1.42;;;32.60;88.10;;;;;;4967325;28;20219;-92
2021/08/11 02:02:21;;;;;;;3.08;1.40;;;32.20;87.40;;;;;;4963135;29;20529;-91
2021/08/11 02:04:55;;;;;;;1.42;1.33;;;31.50;87.80;;;;;;4961620;28;20238;-92
2021/08/11 02:07:28;;;;;;;1.50;1.40;;;30.70;88.90;;;;;;4962604;28;20212;-91
2021/08/11 02:10:03;;;;;;;2.67;1.60;;;30.00;90.30;;;;;;4965375;29;20211;-92
2021/08/11 02:12:35;;;;;;;2.45;1.55;;;29.40;91.20;;;;;;4971929;28;20199;-91
2021/08/11 02:18:08;;;;;;;2.23;1.60;;;28.60;92.50;;;;;;4987097;28;20205;-93
2021/08/11 02:23:56;;;;;;;2.00;1.40;;;28.00;93.40;;;;;;4993742;28;20214;-92
2021/08/11 02:26:33;;;;;;;1.93;1.70;;;27.80;94.00;;;;;;4995781;28;20203;-91
2021/08/11 02:29:14;;;;;;;1.60;1.50;;;27.60;94.20;;;;;;4995122;28;20224;-91
2021/08/11 02:31:55;;;;;;;1.70;1.50;;;27.50;94.50;;;;;;4991162;28;20214;-91
2021/08/11 02:34:36;;;;;;;3.27;1.67;;;27.40;94.70;;;;;;4986944;28;20214;-91
2021/08/11 02:37:18;;;;;;;3.90;1.70;;;27.20;95.00;;;;;;4988320;28;20206;-91
2021/08/11 02:39:52;;;;;;;2.73;1.50;;;27.10;95.50;;;;;;4992725;28;20203;-91
2021/08/11 02:45:34;;;;;;;2.43;1.80;;;26.90;97.00;;;;;;4992897;28;20217;-91
2021/08/11 02:48:08;;;;;;;2.67;1.60;;;26.70;97.30;;;;;;4994214;28;20214;-91
2021/08/11 02:50:42;;;;;;;3.83;1.70;;;26.60;97.30;;;;;;4980524;28;20199;-92
2021/08/11 02:53:22;;;;;;;1.70;1.43;;;26.60;97.90;;;;;;4983610;28;20194;-91
2021/08/11 02:55:54;;;;;;;1.87;1.57;;;26.50;98.40;;;;;;5000815;28;20306;-92
2021/08/11 02:58:29;;;;;;;3.10;1.50;;;26.40;99.20;;;;;;5002182;28;20216;-91
2021/08/11 03:03:59;;;;;;;2.53;1.60;;;26.10;99.90;;;;;;4999000;28;20233;-94
2021/08/11 03:06:33;;;;;;;3.43;1.80;;;26.00;99.90;;;;;;4997048;28;20210;-91
2021/08/11 03:09:09;;;;;;;5.33;1.60;;;25.80;99.90;;;;;;4993925;28;20203;-91
2021/08/11 03:11:42;;;;;;;4.10;1.90;;;25.70;99.90;;;;;;5007272;28;20214;-91
2021/08/11 03:14:18;;;;;;;3.33;1.70;;;25.70;99.90;;;;;;5007142;28;20207;-92
2021/08/11 03:17:11;;;;;;;6.00;1.83;;;25.50;99.90;;;;;;4991059;28;20235;-92
2021/08/11 03:19:45;;;;;;;2.53;1.70;;;25.40;99.90;;;;;;4990696;28;20206;-92
2021/08/11 03:25:05;;;;;;;1.63;1.30;;;25.30;99.90;;;;;;5569290;22;20273;-93
2021/08/11 03:27:39;;;;;;;1.50;1.40;;;25.20;99.90;;;;;;5011257;28;20241;-92
2021/08/11 03:30:13;;;;;;;3.53;1.80;;;25.20;99.90;;;;;;5010038;28;20230;-92
2021/08/11 03:32:46;;;;;;;1.40;1.30;;;25.10;99.90;;;;;;5012638;28;20313;-92
2021/08/11 03:35:18;;;;;;;3.97;1.43;;;25.00;99.90;;;;;;4995906;28;20202;-92
2021/08/11 03:37:52;;;;;;;4.00;1.40;;;25.00;99.90;;;;;;5010331;28;20195;-91
2021/08/11 03:40:26;;;;;;;2.00;1.37;;;24.90;99.90;;;;;;5012357;28;20210;-92
2021/08/11 03:42:58;;;;;;;1.70;1.47;;;24.80;99.90;;;;;;5012382;28;20210;-92
2021/08/11 03:45:37;;;;;;;2.20;1.40;;;24.80;99.90;;;;;;5014879;28;20189;-92
2021/08/11 03:48:09;;;;;;;3.27;1.57;;;24.60;99.90;;;;;;5012962;28;20198;-92
2021/08/11 03:50:40;;;;;;;2.83;1.57;;;24.50;99.90;;;;;;5013313;28;20666;-92
2021/08/11 03:53:12;;;;;;;5.30;3.07;;;24.30;99.90;;;;;;5011075;28;20273;-92
2021/08/11 03:55:46;;;;;;;12.83;5.87;;;24.20;99.90;;;;;;5010133;28;20225;-91
2021/08/11 03:58:20;;;;;;;8.40;2.73;;;23.90;99.90;;;;;;5013527;28;20202;-91
2021/08/11 04:03:38;;;;;;;3.13;1.93;;;23.40;99.90;;;;;;5010666;28;20562;-92
2021/08/11 04:06:11;;;;;;;3.70;1.90;;;23.30;99.90;;;;;;5005314;28;20254;-92
2021/08/11 04:11:31;;;;;;;4.03;1.43;;;23.20;99.90;;;;;;5008986;28;20807;-92
2021/08/11 04:14:04;;;;;;;2.43;1.40;;;23.20;99.90;;;;;;5010849;28;20206;-92
2021/08/11 04:16:41;;;;;;;2.50;1.47;;;23.20;99.90;;;;;;5009240;28;20230;-92
2021/08/11 04:19:14;;;;;;;2.00;1.47;;;23.10;99.90;;;;;;5009604;28;20210;-92
2021/08/11 04:21:46;;;;;;;1.47;1.37;;;23.10;99.90;;;;;;5007750;28;20237;-92
2021/08/11 04:24:17;;;;;;;7.40;1.53;;;23.00;99.90;;;;;;5004650;28;20301;-92
2021/08/11 04:30:19;;;;;;;2.07;1.40;;;22.90;99.90;;;;;;5010011;28;20214;-95
2021/08/11 04:32:52;;;;;;;3.10;1.57;;;22.90;99.90;;;;;;5012156;28;20289;-91
2021/08/11 04:35:29;;;;;;;1.87;1.30;;;22.80;99.90;;;;;;5015403;28;20211;-92
2021/08/11 04:38:01;;;;;;;2.07;1.30;;;22.80;99.90;;;;;;4983866;28;20264;-92
2021/08/11 04:40:35;;;;;;;4.07;1.10;;;22.80;99.90;;;;;;5007646;28;20197;-92
2021/08/11 04:43:09;;;;;;;1.70;1.20;;;22.70;99.90;;;;;;5009183;28;20214;-92
2021/08/11 04:45:43;;;;;;;2.47;1.27;;;22.70;99.90;;;;;;4999008;28;20210;-92
2021/08/11 04:48:15;;;;;;;1.60;1.00;;;22.60;99.90;;;;;;5001095;28;20206;-92
2021/08/11 04:50:47;;;;;;;2.07;1.10;;;22.60;99.90;;;;;;5008692;28;20398;-92
2021/08/11 04:53:19;;;;;;;1.47;1.00;;;22.50;99.90;;;;;;5010255;28;20707;-93
2021/08/11 04:55:51;;;;;;;2.47;0.93;;;22.50;99.90;;;;;;5011478;28;20213;-93
2021/08/11 04:58:26;;;;;;;1.10;1.00;;;22.50;99.90;;;;;;5011682;28;20210;-93
2021/08/11 05:01:42;;;;;;;1.60;1.00;;;22.60;99.90;;;;;;5000728;28;20202;-93
2021/08/11 05:04:29;;;;;;;2.27;0.90;;;22.60;99.90;;;;;;5001971;28;20203;-93
2021/08/11 05:07:01;;;;;;;0.90;0.87;;;22.70;99.90;;;;;;5000998;28;20241;-90
2021/08/11 05:09:36;;;;;;;5.73;1.83;;;22.80;99.90;;;;;;5003751;28;20210;-93
2021/08/11 05:12:08;;;;;;;2.90;1.13;;;22.90;99.90;;;;;;5007141;28;20214;-91
2021/08/11 05:14:40;;;;;;;0.80;0.63;;;22.90;99.90;;;;;;5003580;28;20210;-91
2021/08/11 05:17:14;;;;;;;1.03;0.80;;;22.90;99.90;;;;;;5005355;28;20242;-91
2021/08/11 05:19:46;;;;;;;3.17;1.23;;;22.90;99.90;;;;;;4997473;28;20193;-90
2021/08/11 05:22:19;;;;;;;1.83;0.90;;;22.90;99.90;;;;;;5000288;28;20186;-92
2021/08/11 05:24:51;;;;;;;5.20;0.90;;;22.90;99.90;;;;;;5017434;28;20202;-92
2021/08/11 05:27:24;;;;;;;0.70;0.70;;;22.80;99.90;;;;;;5016232;28;20229;-92
2021/08/11 05:29:55;;;;;;;0.67;0.60;;;22.80;99.90;;;;;;5017902;28;20209;-91
2021/08/11 05:32:29;;;;;;;0.73;0.63;;;22.90;99.90;;;;;;5010071;28;20218;-91
2021/08/11 05:35:00;;;;;;;0.60;0.57;;;22.90;99.90;;;;;;5004035;28;20210;-91
2021/08/11 05:37:33;;;;;;;1.23;0.87;;;22.90;99.90;;;;;;5307500;22;20282;-91
2021/08/11 05:40:08;;;;;;;0.50;0.50;;;22.90;99.90;;;;;;4998482;28;20210;-91
2021/08/11 05:42:41;;;;;;;2.10;1.03;;;22.90;99.90;;;;;;4997753;28;20276;-91
2021/08/11 05:45:14;;;;;;;0.83;0.73;;;22.90;99.90;;;;;;4997544;28;20217;-91
2021/08/11 05:47:48;;;;;;;0.70;0.70;;;22.90;99.90;;;;;;4997697;28;20254;-91
2021/08/11 05:50:19;;;;;;;1.03;0.80;;;22.90;99.90;;;;;;5001792;28;20214;-91
2021/08/11 05:52:53;;;;;;;1.90;0.70;;;22.90;99.90;;;;;;4984534;28;20202;-91
2021/08/11 05:55:25;;;;;;;1.77;0.60;;;22.90;99.90;;;;;;5008948;28;20209;-90
2021/08/11 05:57:57;;;;;;;1.50;0.77;;;22.80;99.90;;;;;;4986731;28;20237;-92
2021/08/11 06:00:29;;;;;;;1.03;0.80;;;22.80;99.90;;;;;;5003261;28;20237;-90
2021/08/11 06:03:03;;;;;;;0.93;0.80;;;22.80;99.90;;;;;;4985577;28;20273;-91
2021/08/11 06:05:36;;;;;;;1.20;0.90;;;22.70;99.90;;;;;;5004798;28;20711;-90
2021/08/11 06:08:08;;;;;;;2.33;0.80;;;22.60;99.90;;;;;;5004575;28;20220;-91
2021/08/11 06:10:40;;;;;;;2.73;1.00;;;22.50;99.90;;;;;;5003228;28;20260;-92
2021/08/11 06:13:15;;;;;;;1.67;1.10;;;22.40;99.90;;;;;;5004399;28;20206;-92
2021/08/11 06:15:48;;;;;;;3.13;1.00;;;22.40;99.90;;;;;;5012173;28;20229;-92
2021/08/11 06:18:23;;;;;;;1.43;1.00;;;22.30;99.90;;;;;;4996982;28;20229;-92
2021/08/11 06:23:37;;;;;;;1.00;1.00;;;22.20;99.90;;;;;;5154719;23;20241;-93
2021/08/11 06:26:08;;;;;;;2.40;1.00;;;22.10;99.90;;;;;;5022436;28;20209;-92
2021/08/11 06:28:40;;;;;;;1.30;1.10;;;22.00;99.90;;;;;;5020134;28;20576;-92
2021/08/11 06:31:13;;;;;;;1.10;1.00;;;21.90;99.90;;;;;;5020047;28;20206;-92
2021/08/11 06:33:47;;;;;;;2.00;1.10;;;21.90;99.90;;;;;;5022402;28;20213;-92
2021/08/11 06:36:18;;;;;;;1.73;0.90;;;21.80;99.90;;;;;;5020343;28;20217;-92
2021/08/11 06:38:51;;;;;;;3.33;1.00;;;21.80;99.90;;;;;;5020559;28;20237;-90
2021/08/11 06:41:23;;;;;;;2.93;1.00;;;21.70;99.90;;;;;;5022401;28;20236;-92
2021/08/11 06:43:54;;;;;;;1.77;0.83;;;21.60;99.90;;;;;;5033238;28;20206;-92
2021/08/11 06:46:27;;;;;;;1.63;1.00;;;21.60;99.90;;;;;;5028232;28;20568;-92
2021/08/11 06:49:09;;;;;;;1.27;1.00;;;21.50;99.90;;;;;;5029281;28;20212;-92
2021/08/11 06:51:40;;;;;;;2.57;1.33;;;21.40;99.90;;;;;;5026507;28;20228;-92
2021/08/11 06:54:15;;;;;;;2.30;1.50;;;21.40;99.90;;;;;;5023949;28;20205;-92
2021/08/11 06:56:53;;;;;;;2.30;1.60;;;21.30;99.90;;;;;;5020549;28;20201;-91
2021/08/11 06:59:25;;;;;;;3.20;1.93;;;21.20;99.90;;;;;;5021546;28;20274;-91
2021/08/11 07:01:56;;;;;;;2.00;1.47;;;21.10;99.90;;;;;;5018992;28;20206;-92
2021/08/11 07:04:29;;;;;;;1.80;1.70;;;21.10;99.90;;;;;;5020666;28;20283;-90
2021/08/11 07:07:01;;;;;;;2.63;1.90;;;21.00;99.90;;;;;;4992305;28;20213;-91
2021/08/11 07:09:32;;;;;;;2.53;1.47;;;20.90;99.90;;;;;;5000905;28;20688;-92
2021/08/11 07:12:05;;;;;;;2.03;1.70;;;20.80;99.90;;;;;;5003979;28;20254;-91
2021/08/11 07:14:38;;;;;;;3.07;1.57;;;20.80;99.90;;;;;;5021412;28;20193;-92
2021/08/11 07:17:09;;;;;;;2.77;1.60;;;20.70;99.90;;;;;;5031749;28;20202;-90
2021/08/11 07:19:44;;;;;;;1.90;1.37;;;20.70;99.90;;;;;;5036463;28;20220;-91
2021/08/11 07:22:15;;;;;;;2.23;1.60;;;20.60;99.90;;;;;;5026776;28;20213;-91
2021/08/11 07:24:48;;;;;;;1.90;1.70;;;20.60;99.90;;;;;;5027841;28;20690;-91
2021/08/11 07:27:20;;;;;;;2.07;1.50;;;20.50;99.90;;;;;;5024965;28;20246;-91
2021/08/11 07:29:51;;;;;;;2.53;1.70;;;20.50;99.90;;;;;;5021371;28;20213;-91
2021/08/11 07:32:22;;;;;;;2.37;1.90;;;20.50;99.90;;;;;;5021174;28;20210;-91
2021/08/11 07:34:57;;;;;;;2.27;1.60;;;20.40;99.90;;;;;;5020467;28;20217;-91
2021/08/11 07:37:28;;;;;;;2.60;1.57;;;20.40;99.90;;;;;;5022205;28;20221;-91
2021/08/11 07:40:00;;;;;;;2.60;1.70;;;20.40;99.90;;;;;;5021478;28;20291;-91
2021/08/11 07:42:33;;;;;;;2.17;1.50;;;20.30;99.90;;;;;;5027725;28;20289;-90
2021/08/11 07:45:04;;;;;;;2.87;1.47;;;20.30;99.90;;;;;;5005275;28;20277;-91
2021/08/11 07:47:37;;;;;;;1.70;1.47;;;20.20;99.90;;;;;;5036552;28;20202;-90
2021/08/11 07:53:18;;;;;;;1.80;1.30;;;20.20;99.90;;;;;;5171792;27;20557;-90
2021/08/11 07:55:50;;;;;;;2.20;1.27;;;20.20;99.90;;;;;;5175918;27;20201;-91
2021/08/11 07:58:24;;;;;;;3.63;1.43;;;20.30;99.90;;;;;;5175783;27;20201;-90
2021/08/11 08:00:57;;;;;;;1.70;1.60;;;20.30;99.90;;;;;;5150202;27;20212;-91
2021/08/11 08:03:29;;;;;;;2.00;1.47;;;20.20;99.90;;;;;;5159738;27;20209;-92
2021/08/11 08:06:01;;;;;;;3.17;1.37;;;20.20;99.90;;;;;;5157174;27;20201;-91
2021/08/11 08:08:36;;;;;;;2.00;1.30;;;20.20;99.90;;;;;;5156764;27;20204;-91
2021/08/11 08:11:07;;;;;;;1.77;1.27;;;20.20;99.90;;;;;;5137181;27;20227;-91
2021/08/11 08:13:39;;;;;;;1.30;1.20;;;20.20;99.90;;;;;;5156514;27;20680;-92
2021/08/11 08:16:11;;;;;;;1.87;1.30;;;20.10;99.90;;;;;;5155712;27;20572;-91
2021/08/11 08:18:43;;;;;;;3.67;1.30;;;20.10;99.90;;;;;;5155563;27;20209;-91
2021/08/11 08:21:15;;;;;;;1.30;1.20;;;20.10;99.90;;;;;;5154170;27;20221;-91
2021/08/11 08:23:48;;;;;;;2.60;1.50;;;20.00;99.90;;;;;;5156171;27;20216;-92
2021/08/11 08:26:20;;;;;;;2.20;1.30;;;20.00;99.90;;;;;;5136546;27;20209;-91
2021/08/11 08:28:53;;;;;;;1.23;1.13;;;20.00;99.90;;;;;;5155383;27;20201;-91
2021/08/11 08:31:25;;;;;;;2.07;1.17;;;20.00;99.90;;;;;;5154129;27;20234;-91
2021/08/11 08:33:57;;;;;;;2.17;1.20;;;20.00;99.90;;;;;;5155615;27;20202;-90
2021/08/11 08:36:30;;;;;;;1.27;1.10;;;19.90;99.90;;;;;;5155539;27;20216;-91
2021/08/11 08:39:03;;;;;;;1.30;1.17;;;19.80;99.90;;;;;;5155075;27;20205;-91
2021/08/11 08:41:38;;;;;;;1.37;1.00;;;19.80;99.90;;;;;;5154099;27;20212;-91
2021/08/11 08:44:11;;;;;;;1.37;1.27;;;19.80;99.90;;;;;;5154762;27;20205;-91
2021/08/11 08:46:44;;;;;;;1.23;1.07;;;19.70;99.90;;;;;;5156647;27;20209;-91
2021/08/11 08:49:17;;;;;;;1.87;1.40;;;19.70;99.90;;;;;;5155195;27;20220;-91
2021/08/11 08:51:50;;;;;;;2.20;1.30;;;19.70;99.90;;;;;;5153650;27;20707;-91
2021/08/11 08:54:27;;;;;;;1.30;1.20;;;19.60;99.90;;;;;;5154378;27;20645;-91
2021/08/11 08:56:59;;;;;;;1.40;1.30;;;19.60;99.90;;;;;;5154722;27;20236;-91
2021/08/11 08:59:32;;;;;;;1.70;1.33;;;19.60;99.90;;;;;;5155159;27;20656;-91
2021/08/11 09:02:04;;;;;;;1.30;1.20;;;19.60;99.90;;;;;;5138192;27;20205;-91
2021/08/11 09:04:35;;;;;;;1.60;1.50;;;19.50;99.90;;;;;;5118879;28;20681;-91
2021/08/11 09:07:10;;;;;;;1.47;1.17;;;19.50;99.90;;;;;;5122450;27;20213;-92
2021/08/11 09:09:44;;;;;;;3.07;1.20;;;19.50;99.90;;;;;;5140721;27;20204;-91
2021/08/11 09:12:17;;;;;;;4.43;1.60;;;19.50;99.90;;;;;;5139496;27;20237;-91
2021/08/11 09:14:50;;;;;;;1.93;1.33;;;19.40;99.90;;;;;;5140729;27;20233;-90
2021/08/11 09:17:36;;;;;;;2.77;1.40;;;19.40;99.90;;;;;;5132566;27;20259;-91
2021/08/11 09:20:09;;;;;;;1.77;1.50;;;19.30;99.90;;;;;;5119606;28;20259;-91
2021/08/11 09:22:51;;;;;;;2.00;1.27;;;19.20;99.90;;;;;;5119523;28;20289;-91
2021/08/11 09:25:26;;;;;;;2.03;1.50;;;19.30;99.90;;;;;;5119870;28;20296;-91
2021/08/11 09:27:57;;;;;;;2.70;1.50;;;19.20;99.90;;;;;;5127489;27;20247;-91
2021/08/11 09:30:33;;;;;;;1.77;1.23;;;19.20;99.90;;;;;;5139499;27;20205;-90
2021/08/11 09:33:07;;;;;;;1.30;1.20;;;19.10;99.90;;;;;;5141900;27;20233;-91
2021/08/11 09:35:40;;;;;;;1.50;1.30;;;19.10;99.90;;;;;;5133116;27;20213;-91
2021/08/11 09:38:14;;;;;;;2.30;1.33;;;19.10;99.90;;;;;;5139559;27;20261;-90
2021/08/11 09:40:49;;;;;;;1.80;1.20;;;19.10;99.90;;;;;;5139399;27;20204;-91
2021/08/11 09:43:35;;;;;;;2.73;1.40;;;19.10;99.90;;;;;;5140342;27;20196;-90
2021/08/11 09:46:07;;;;;;;2.50;1.57;;;19.10;99.90;;;;;;5140314;27;20209;-91
2021/08/11 09:48:45;;;;;;;1.60;1.40;;;19.00;99.90;;;;;;5140587;27;20265;-91
2021/08/11 09:51:17;;;;;;;1.93;1.57;;;19.00;99.90;;;;;;5140535;27;20229;-90
2021/08/11 09:53:48;;;;;;;1.87;1.20;;;18.90;99.90;;;;;;5140819;27;20237;-91
2021/08/11 09:56:22;;;;;;;1.33;1.13;;;18.90;99.90;;;;;;5140613;27;20305;-91
2021/08/11 09:59:05;;;;;;;1.30;1.20;;;18.90;99.90;;;;;;5143479;27;20262;-91
2021/08/11 10:01:36;;;;;;;2.47;1.40;;;18.90;99.90;;;;;;5140220;27;20213;-91
2021/08/11 10:04:10;;;;;;;2.83;1.37;;;18.90;99.90;;;;;;5142960;27;20269;-91
2021/08/11 10:06:43;;;;;;;1.93;1.53;;;18.90;99.90;;;;;;5140894;27;20203;-91
2021/08/11 10:09:17;;;;;;;4.43;1.40;;;18.90;99.90;;;;;;5140269;27;20258;-91
2021/08/11 10:11:53;;;;;;;1.80;1.27;;;18.90;99.90;;;;;;5139992;27;20205;-90
2021/08/11 10:14:26;;;;;;;4.23;1.60;;;18.90;99.90;;;;;;5142262;27;20289;-92
2021/08/11 10:17:00;;;;;;;6.10;1.50;;;18.90;99.90;;;;;;5159094;27;20218;-92
2021/08/11 10:19:33;;;;;;;3.93;1.40;;;18.90;99.90;;;;;;5142342;27;20243;-91
2021/08/11 10:22:14;;;;;;;3.53;1.50;;;18.90;99.90;;;;;;5155402;27;20251;-89
2021/08/11 10:24:45;;;;;;;2.37;1.60;;;18.90;99.90;;;;;;5144498;27;20181;-91
2021/08/11 10:27:19;;;;;;;1.50;1.30;;;18.90;99.90;;;;;;5157087;27;20235;-91
2021/08/11 10:29:52;;;;;;;2.53;1.50;;;18.80;99.90;;;;;;5155323;27;20268;-91
2021/08/11 10:32:24;;;;;;;2.70;1.47;;;18.80;99.90;;;;;;5156215;27;20222;-90
2021/08/11 10:34:56;;;;;;;3.17;1.60;;;18.80;99.90;;;;;;5158069;27;20231;-91
2021/08/11 10:37:28;;;;;;;2.93;1.60;;;18.80;99.90;;;;;;5154216;27;20214;-90
2021/08/11 10:40:00;;;;;;;3.77;1.53;;;18.80;99.90;;;;;;5137171;27;20636;-91
2021/08/11 10:42:34;;;;;;;2.37;1.63;;;18.80;99.90;;;;;;5148345;27;20201;-92
2021/08/11 10:45:06;;;;;;;1.43;1.30;;;18.80;99.90;;;;;;5153670;27;20198;-91
2021/08/11 10:47:38;;;;;;;2.00;1.60;;;18.70;99.90;;;;;;5158560;27;20204;-91
2021/08/11 10:50:10;;;;;;;2.87;1.70;;;18.70;99.90;;;;;;5158527;27;20194;-93
2021/08/11 10:52:42;;;;;;;3.10;1.70;;;18.70;99.90;;;;;;5155546;27;20221;-90
2021/08/11 10:55:14;;;;;;;2.90;1.50;;;18.60;99.90;;;;;;5154602;27;20254;-90
2021/08/11 10:57:51;;;;;;;1.77;1.63;;;18.60;99.90;;;;;;5145656;27;20200;-91
2021/08/11 11:00:45;;;;;;;2.03;1.50;;;18.60;99.90;;;;;;5159388;27;20216;-91
2021/08/11 11:03:50;;;;;;;2.57;1.80;;;18.50;99.90;;;;;;5162173;27;20224;-91
2021/08/11 11:06:22;;;;;;;4.53;2.00;;;18.50;99.90;;;;;;5161472;27;20201;-91
2021/08/11 11:09:22;;;;;;;2.57;1.87;;;18.30;99.90;;;;;;5160743;27;20219;-91
2021/08/11 11:11:54;;;;;;;2.00;1.80;;;18.30;99.90;;;;;;5143834;27;20205;-91
2021/08/11 11:14:57;;;;;;;2.37;1.50;;;18.20;99.90;;;;;;5166062;27;20235;-91
2021/08/11 11:17:29;;;;;;;2.63;1.70;;;18.20;99.90;;;;;;5159381;27;20220;-91
2021/08/11 11:20:28;;;;;;;2.93;1.70;;;18.20;99.90;;;;;;5160115;27;20205;-91
2021/08/11 11:23:05;;;;;;;3.73;1.73;;;18.10;99.90;;;;;;5160346;27;20546;-91
2021/08/11 11:25:59;;;;;;;2.43;2.07;;;18.10;99.90;;;;;;5160590;27;20245;-90
2021/08/11 11:28:58;;;;;;;2.20;1.83;;;18.10;99.90;;;;;;5159699;27;20200;-90
2021/08/11 11:31:51;;;;;;;2.77;1.73;;;18.10;99.90;;;;;;5113195;27;20213;-90
2021/08/11 11:34:34;;;;;;;1.90;1.80;;;18.10;99.90;;;;;;5161044;27;20647;-91
2021/08/11 11:37:25;;;;;;;2.03;1.77;;;18.00;99.90;;;;;;5160356;27;20193;-90
2021/08/11 11:40:19;;;;;;;2.33;1.83;;;18.00;99.90;;;;;;5162160;27;20419;-91
2021/08/11 11:42:51;;;;;;;4.47;1.70;;;17.80;99.90;;;;;;5161802;27;20204;-91
2021/08/11 11:45:47;;;;;;;5.10;2.00;;;17.90;99.90;;;;;;5160191;27;20201;-91
2021/08/11 11:48:21;;;;;;;1.87;1.57;;;17.80;99.90;;;;;;5161014;27;20213;-91
2021/08/11 11:50:54;;;;;;;3.20;1.67;;;17.80;99.90;;;;;;5158960;27;20292;-90
2021/08/11 11:53:31;;;;;;;2.90;1.90;;;17.80;99.90;;;;;;5163042;27;20228;-90
2021/08/11 11:56:12;;;;;;;1.90;1.60;;;17.80;99.90;;;;;;5159268;27;20545;-91
2021/08/11 11:58:45;;;;;;;1.90;1.67;;;17.70;99.90;;;;;;5161404;27;20215;-91
2021/08/11 12:01:19;;;;;;;1.83;1.73;;;17.70;99.90;;;;;;5160463;27;20621;-91
2021/08/11 12:03:55;;;;;;;2.30;1.90;;;17.70;99.90;;;;;;5160669;27;20212;-90
2021/08/11 12:06:37;;;;;;;1.73;1.63;;;17.70;99.90;;;;;;5141830;27;20565;-90
2021/08/11 12:09:08;;;;;;;3.33;1.67;;;17.70;99.90;;;;;;5141601;27;20211;-90
2021/08/11 12:11:40;;;;;;;2.33;1.83;;;17.70;99.90;;;;;;5160190;27;20234;-91
2021/08/11 12:14:12;;;;;;;3.83;2.00;;;17.70;99.90;;;;;;5158976;27;20256;-91
2021/08/11 12:16:45;;;;;;;2.10;1.53;;;17.60;99.90;;;;;;5142067;27;20650;-90
2021/08/11 12:19:21;;;;;;;2.20;1.90;;;17.60;99.90;;;;;;5137811;28;20201;-91
2021/08/11 12:21:53;;;;;;;2.60;1.83;;;17.60;99.90;;;;;;5121150;28;20209;-91
2021/08/11 12:24:24;;;;;;;2.40;1.90;;;17.60;99.90;;;;;;5140348;28;20686;-90
2021/08/11 12:26:56;;;;;;;2.37;1.70;;;17.60;99.90;;;;;;5137586;28;20210;-90
2021/08/11 12:29:28;;;;;;;2.30;1.80;;;17.60;99.90;;;;;;5137737;28;20329;-91
2021/08/11 12:31:59;;;;;;;2.73;1.60;;;17.50;99.90;;;;;;5118379;28;20209;-91
2021/08/11 12:34:35;;;;;;;2.10;1.70;;;17.60;99.90;;;;;;5120427;28;20596;-89
2021/08/11 12:37:06;;;;;;;2.50;1.60;;;17.50;99.90;;;;;;5138136;27;20232;-91
2021/08/11 12:39:39;;;;;;;2.20;1.73;;;17.50;99.90;;;;;;5141089;27;20266;-90
2021/08/11 12:42:12;;;;;;;3.87;1.70;;;17.50;99.90;;;;;;5123136;27;20202;-90
2021/08/11 12:44:43;;;;;;;2.63;1.60;;;17.50;99.90;;;;;;5143275;27;20205;-90
2021/08/11 12:47:15;;;;;;;2.20;1.50;;;17.50;99.90;;;;;;5160532;27;20189;-91
2021/08/11 12:49:50;;;;;;;2.30;1.80;;;17.50;99.90;;;;;;5159905;27;20273;-90
2021/08/11 12:52:34;;;;;;;2.43;1.80;;;17.50;99.90;;;;;;5157203;27;20302;-90
2021/08/11 12:55:09;;;;;;;3.37;1.83;;;17.50;99.90;;;;;;5144042;27;20595;-91
2021/08/11 12:57:53;;;;;;;2.83;1.83;;;17.40;99.90;;;;;;5143239;27;20201;-91
2021/08/11 13:00:40;;;;;;;3.23;1.90;;;17.40;99.90;;;;;;5142843;27;20282;-91
2021/08/11 13:03:13;;;;;;;3.43;1.70;;;17.40;99.90;;;;;;5142123;27;20201;-91
2021/08/11 13:05:54;;;;;;;2.63;1.80;;;17.40;99.90;;;;;;5141363;27;20197;-91
2021/08/11 13:08:41;;;;;;;4.13;1.73;;;17.50;99.90;;;;;;5141914;27;20683;-91
2021/08/11 13:11:12;;;;;;;3.77;2.00;;;17.50;99.90;;;;;;5141174;27;20659;-91
2021/08/11 13:13:51;;;;;;;3.73;2.17;;;17.50;99.90;;;;;;5141820;27;20240;-91
2021/08/11 13:16:22;;;;;;;5.37;2.20;;;17.50;99.90;;;;;;5142087;27;20201;-91
2021/08/11 13:18:54;;;;;;;3.50;1.70;;;17.50;99.90;;;;;;5141755;27;20206;-91
2021/08/11 13:21:42;;;;;;;2.17;1.93;;;17.50;99.90;;;;;;5140516;27;20672;-91
2021/08/11 13:24:14;;;;;;;4.00;1.80;;;17.50;99.90;;;;;;5141731;27;20244;-91
2021/08/11 13:26:45;;;;;;;2.70;1.60;;;17.40;99.90;;;;;;5144060;27;20226;-90
2021/08/11 13:29:25;;;;;;;4.23;1.73;;;17.50;99.90;;;;;;5142940;27;20208;-90
2021/08/11 13:31:58;;;;;;;2.13;1.83;;;17.50;99.90;;;;;;5142654;27;20213;-90
2021/08/11 13:34:30;;;;;;;2.40;2.07;;;17.50;99.90;;;;;;5145067;27;20237;-90
2021/08/11 13:37:04;;;;;;;2.67;2.13;;;17.50;99.90;;;;;;5134685;27;20749;-91
2021/08/11 13:39:37;;;;;;;2.57;1.83;;;17.50;99.90;;;;;;5149322;27;20205;-91
2021/08/11 13:42:08;;;;;;;2.10;1.70;;;17.60;99.90;;;;;;5142900;27;20284;-90
2021/08/11 13:44:40;;;;;;;3.27;2.07;;;17.60;99.90;;;;;;5142107;27;20676;-91
2021/08/11 13:47:11;;;;;;;2.27;1.57;;;17.70;99.90;;;;;;5140536;27;20244;-90
2021/08/11 13:49:42;;;;;;;3.83;2.10;;;17.70;99.90;;;;;;5140703;27;20209;-91
2021/08/11 13:52:17;;;;;;;3.20;2.10;;;17.70;99.90;;;;;;5139352;27;20665;-91
2021/08/11 13:54:48;;;;;;;2.80;2.13;;;17.70;99.90;;;;;;5139867;27;20237;-90
2021/08/11 13:57:20;;;;;;;2.67;1.93;;;17.80;99.90;;;;;;5139856;27;20733;-91
2021/08/11 13:59:52;;;;;;;2.93;2.00;;;17.80;99.90;;;;;;5140577;27;20744;-91
2021/08/11 14:02:23;;;;;;;2.30;2.10;;;17.80;99.90;;;;;;5138925;27;20266;-91
2021/08/11 14:04:55;;;;;;;2.47;2.00;;;17.90;99.90;;;;;;5140164;27;20221;-91
2021/08/11 14:07:29;;;;;;;4.00;1.93;;;17.90;99.90;;;;;;5140405;27;20488;-91
2021/08/11 14:10:01;;;;;;;4.63;2.20;;;17.90;99.90;;;;;;5139764;27;20206;-91
2021/08/11 14:12:32;;;;;;;4.50;1.97;;;18.00;99.90;;;;;;5138415;27;20222;-90
2021/08/11 14:15:03;;;;;;;2.90;2.00;;;18.00;99.90;;;;;;5139518;27;20249;-91
2021/08/11 14:17:37;;;;;;;3.07;1.90;;;18.10;99.90;;;;;;5123133;27;20232;-90